This is the latest recevied weather packets stored in our database for station/object KC4LZN. If no packets are shown the sender has not sent any weather packets the latest 10 day(s).
| Time | Temp. | Humidity | Pressure | Rain* | Wind** | Luminosity | Snow |
|---|---|---|---|---|---|---|---|
| 1777758064 | 21.11° C | 95% | 1011 hPa | 0 mm | - | 57 W/m² | - |
| 1777757761 | 21.11° C | 95% | 1011 hPa | 0 mm | - | 43 W/m² | - |
| 1777757459 | 21.11° C | 96% | 1011.3 hPa | 0 mm | - | 43 W/m² | - |
| 1777757158 | 21.11° C | 96% | 1011 hPa | 0 mm | - | 59 W/m² | - |
| 1777756855 | 20.56° C | 96% | 1011 hPa | 0 mm | - | 57 W/m² | - |
| 1777756550 | 21.11° C | 96% | 1011.2 hPa | 0 mm | - | 59 W/m² | - |
| 1777756248 | 20.56° C | 96% | 1011.1 hPa | 0 mm | - | 65 W/m² | - |
| 1777755945 | 20.56° C | 96% | 1011.1 hPa | 0 mm | - | 78 W/m² | - |
| 1777755642 | 21.11° C | 96% | 1010.9 hPa | 0 mm | - | 96 W/m² | - |
| 1777755338 | 21.11° C | 96% | 1011.1 hPa | 0 mm | - | 95 W/m² | - |
| 1777755036 | 21.11° C | 96% | 1011.1 hPa | 0 mm | - | 111 W/m² | - |
| 1777754732 | 21.11° C | 96% | 1010.9 hPa | 0 mm | - | 149 W/m² | - |
| 1777754430 | 21.11° C | 96% | 1010.4 hPa | 0 mm | - | 171 W/m² | - |
| 1777754127 | 20.56° C | 96% | 1010.7 hPa | 0 mm | - | 171 W/m² | - |
| 1777753824 | 20.56° C | 96% | 1010.9 hPa | 0 mm | - | 139 W/m² | - |
| 1777753520 | 20.56° C | 96% | 1011 hPa | 3.05 mm | - | 82 W/m² | - |
| 1777753219 | 20.56° C | 96% | 1010.7 hPa | 6.1 mm | - | 38 W/m² | - |
| 1777752914 | 20.56° C | 95% | 1010.8 hPa | 4.83 mm | - | 22 W/m² | - |
| 1777752610 | 20.56° C | 95% | 1011.4 hPa | 4.32 mm | - | 19 W/m² | - |
| 1777752307 | 20.56° C | 95% | 1011.3 hPa | 4.32 mm | - | 22 W/m² | - |
| 1777752005 | 20.56° C | 94% | 1012 hPa | 4.32 mm | - | 24 W/m² | - |
| 1777751702 | 20.56° C | 94% | 1012.3 hPa | 3.05 mm | - | 26 W/m² | - |
| 1777751397 | 20.56° C | 93% | 1012.2 hPa | 1.78 mm | - | 32 W/m² | - |
| 1777751095 | 20.56° C | 92% | 1012 hPa | 1.78 mm | - | 46 W/m² | - |
| 1777750790 | 20.56° C | 92% | 1011.9 hPa | 1.27 mm | - | 68 W/m² | - |
* Rain latest hour (hover to see other rain measurements)
** Current wind speed in m/s (hover to see current wind gust speed)